Fairmont, MN

8:02 AM CDT on March 31, 2015 (GMT -0500)
Estherville Municipal | | Change Station
CLOSE
Current Station
Airport
Location: Estherville,
Elevation: 1316 ft
Nearby Weather Stations

Elev 1316 ft 43.40 °N, 94.75 °W | Updated 10 minutes ago

Clear
Clear
38 °F
Feels Like 31 °F
N
10
Wind Variable Wind from WNW

Today
High -- | Low -- °F
--% Chance of Precip.
Yesterday
High -- | Low -- °F
Precip. -- in
7:01 AM 7:43 PM
Waxing Gibbous, 86% visible
Pressure 29.97 in
Visibility 10.0 miles
Clouds Clear
Windchill 31 °F
Dew Point 31 °F
Humidity 76%
Rainfall 0.00 in
Snow Depth Not available.
UV 0 out of 12
Pollen 6.70 out of 12
Air Quality Not available.
Flu Activity Not available.
METAR KEST 311252Z AUTO 30009KT 10SM CLR 03/M01 A2996 RMK AO2 SLP149 T00331006

More Conditions Fewer Conditions

Pressure 29.97 in
Visibility 10.0 miles
Clouds Clear
Windchill 31 °F
Dew Point 31 °F
Humidity 76%
Rainfall 0.00 in
Snow Depth Not available.
UV 0 out of 12
Pollen 6.70 out of 12
Air Quality Not available.
Flu Activity Not available.
METAR KEST 311252Z AUTO 30009KT 10SM CLR 03/M01 A2996 RMK AO2 SLP149 T00331006

More Conditions Fewer Conditions

10-Day Weather Forecast

Almanac

Astronomy

Mar. 31, 2015 Rise Set
Actual Time
Civil Twilight
Nautical Twilight
Astronomical Twilight
Moon
Length of Visible Light
Length of Day
Tomorrow will be .
, % of the Moon is Illuminated

Today's Extremes

State Highs State Lows

Community

WunderPhotos

Upload Photos

1,809,757 photos uploaded!

WunderBlogs® & News

Nearby

Air Quality

  Air Quality AQ Index Pollutant
Not available.

Snow Depth

Station Depth Elevation

Earthquake Activity

City Distance Mag. Time & Date
Minimum magnitude displayed is 2.5.

Coastal Water Temperatures

Place Temperature

Stations

Nearby Weather Stations

Station Location Temp. Windchill Dew Point Humidity Wind Precip. Elev Updated Type